createdAt,value
2023-04-19T00:02:34.451Z,6.50
2023-04-19T00:05:09.326Z,6.40
2023-04-19T00:07:42.280Z,6.50
2023-04-19T00:10:22.896Z,7.10
2023-04-19T00:12:53.450Z,7.60
2023-04-19T00:15:24.306Z,6.90
2023-04-19T00:17:57.628Z,6.50
2023-04-19T00:20:42.921Z,6.70
2023-04-19T00:23:32.558Z,7.50
2023-04-19T00:26:06.919Z,6.90
2023-04-19T00:28:37.753Z,7.70
2023-04-19T00:31:08.467Z,6.80
2023-04-19T00:33:39.166Z,6.80
2023-04-19T00:36:10.975Z,7.20
2023-04-19T00:38:42.821Z,7.60
2023-04-19T00:41:15.033Z,7.10
2023-04-19T00:44:02.175Z,7.00
2023-04-19T00:46:32.715Z,6.10
2023-04-19T00:49:05.954Z,6.40
2023-04-19T00:51:36.949Z,7.20
2023-04-19T00:54:09.084Z,7.70
2023-04-19T00:56:39.776Z,7.00
2023-04-19T00:59:10.475Z,6.50
2023-04-19T01:02:01.731Z,6.60
2023-04-19T01:04:44.896Z,6.60
2023-04-19T01:07:16.718Z,6.90
2023-04-19T01:09:50.271Z,6.10
2023-04-19T01:12:28.595Z,6.20
2023-04-19T01:15:19.321Z,6.20
2023-04-19T01:17:53.909Z,7.60
2023-04-19T01:20:33.449Z,6.30
2023-04-19T01:23:12.605Z,6.90
2023-04-19T01:25:53.472Z,6.50
2023-04-19T01:28:25.612Z,6.30
2023-04-19T01:30:58.439Z,7.00
2023-04-19T01:33:49.169Z,6.50
2023-04-19T01:36:34.282Z,6.00
2023-04-19T01:39:07.735Z,6.70
2023-04-19T01:41:38.230Z,6.00
2023-04-19T01:44:29.190Z,6.40
2023-04-19T01:47:10.913Z,6.50
2023-04-19T01:49:44.543Z,6.70
2023-04-19T01:52:15.027Z,6.50
2023-04-19T01:54:48.094Z,7.40
2023-04-19T01:57:32.789Z,6.60
2023-04-19T02:00:04.448Z,6.00
2023-04-19T02:02:44.877Z,6.20
2023-04-19T02:05:15.851Z,6.20
2023-04-19T02:07:46.714Z,6.10
2023-04-19T02:10:19.786Z,7.20
2023-04-19T02:12:52.849Z,6.40
2023-04-19T02:15:23.438Z,6.70
2023-04-19T02:17:57.326Z,6.20
2023-04-19T02:20:31.370Z,5.70
2023-04-19T02:23:01.839Z,6.30
2023-04-19T02:25:35.070Z,6.80
2023-04-19T02:28:05.722Z,7.10
2023-04-19T02:30:41.303Z,6.70
2023-04-19T02:33:17.248Z,7.70
2023-04-19T02:35:52.810Z,7.10
2023-04-19T02:38:31.009Z,7.20
2023-04-19T02:41:04.408Z,6.40
2023-04-19T02:43:35.092Z,6.50
2023-04-19T02:46:08.165Z,6.20
2023-04-19T02:48:48.141Z,6.00
2023-04-19T02:51:21.807Z,7.10
2023-04-19T02:54:03.534Z,6.30
2023-04-19T02:56:34.739Z,6.50
2023-04-19T02:59:18.532Z,6.40
2023-04-19T03:02:09.198Z,6.20
2023-04-19T03:04:43.358Z,6.70
2023-04-19T03:07:14.354Z,6.70
2023-04-19T03:09:45.201Z,6.70
2023-04-19T03:12:15.940Z,6.80
2023-04-19T03:14:49.379Z,6.50
2023-04-19T03:17:20.143Z,5.80
2023-04-19T03:20:07.962Z,7.10
2023-04-19T03:22:41.734Z,6.60
2023-04-19T03:27:57.313Z,6.80
2023-04-19T03:30:45.804Z,6.60
2023-04-19T03:33:19.631Z,6.60
2023-04-19T03:36:04.206Z,7.00
2023-04-19T03:38:39.158Z,6.20
2023-04-19T03:41:21.906Z,6.70
2023-04-19T03:43:55.423Z,6.80
2023-04-19T03:46:28.142Z,7.10
2023-04-19T03:49:10.956Z,6.60
2023-04-19T03:56:53.073Z,5.90
2023-04-19T03:59:31.829Z,5.90
2023-04-19T04:02:07.039Z,6.90
2023-04-19T04:07:17.693Z,7.00
2023-04-19T04:09:59.447Z,6.50
2023-04-19T04:12:50.220Z,6.70
2023-04-19T04:15:28.179Z,7.60
2023-04-19T04:18:09.310Z,7.20
2023-04-19T04:20:44.491Z,6.90
2023-04-19T04:23:16.569Z,7.50
2023-04-19T04:26:02.599Z,7.70
2023-04-19T04:28:56.513Z,7.60
2023-04-19T04:31:38.555Z,6.80
2023-04-19T04:34:20.519Z,6.90
2023-04-19T04:37:11.839Z,7.80
2023-04-19T04:39:46.012Z,7.90
2023-04-19T04:42:37.899Z,7.20
2023-04-19T04:45:13.072Z,8.30
2023-04-19T04:47:47.940Z,7.80
2023-04-19T04:50:31.448Z,7.10
2023-04-19T04:53:11.084Z,8.30
2023-04-19T04:55:53.798Z,8.10
2023-04-19T04:58:39.115Z,7.50
2023-04-19T05:01:26.415Z,8.10
2023-04-19T05:03:57.357Z,8.80
2023-04-19T05:06:48.140Z,8.40
2023-04-19T05:09:23.895Z,8.60
2023-04-19T05:12:03.934Z,7.70
2023-04-19T05:14:48.496Z,8.00
2023-04-19T05:17:39.298Z,7.90
2023-04-19T05:20:12.168Z,8.00
2023-04-19T05:23:03.541Z,8.10
2023-04-19T05:25:50.634Z,8.70
2023-04-19T05:28:41.301Z,7.30
2023-04-19T05:31:31.195Z,7.70
2023-04-19T05:34:25.127Z,7.70
2023-04-19T05:37:10.575Z,8.40
2023-04-19T05:39:45.535Z,7.60
2023-04-19T05:42:36.540Z,7.50
2023-04-19T05:45:11.581Z,7.80
2023-04-19T05:47:43.110Z,8.10
2023-04-19T05:50:33.330Z,8.50
2023-04-19T05:53:23.143Z,7.50
2023-04-19T05:55:54.931Z,8.00
2023-04-19T05:58:28.744Z,7.80
2023-04-19T06:01:00.041Z,8.20
2023-04-19T06:03:32.365Z,8.70
2023-04-19T06:06:15.213Z,8.50
2023-04-19T06:11:26.945Z,7.90
2023-04-19T06:14:09.997Z,9.10
2023-04-19T06:17:01.915Z,8.70
2023-04-19T06:19:44.431Z,8.60
2023-04-19T06:22:34.094Z,7.70
2023-04-19T06:25:06.123Z,8.30
2023-04-19T06:27:36.678Z,8.10
2023-04-19T06:30:11.948Z,7.40
2023-04-19T06:32:42.546Z,8.80
2023-04-19T06:35:15.854Z,8.40
2023-04-19T06:37:56.714Z,7.90
2023-04-19T06:40:30.283Z,7.20
2023-04-19T06:43:03.200Z,7.30
2023-04-19T06:45:38.969Z,7.90
2023-04-19T06:48:09.738Z,8.00
2023-04-19T06:50:50.413Z,8.60
2023-04-19T06:53:21.038Z,7.80
2023-04-19T06:55:54.811Z,8.60
2023-04-19T06:58:30.134Z,8.20
2023-04-19T07:01:02.071Z,7.70
2023-04-19T07:03:36.341Z,7.00
2023-04-19T07:08:48.838Z,8.10
2023-04-19T07:11:22.332Z,7.90
2023-04-19T07:13:53.901Z,6.40
2023-04-19T07:18:54.474Z,7.50
2023-04-19T07:21:30.403Z,7.80
2023-04-19T07:24:10.447Z,6.70
2023-04-19T07:26:40.834Z,7.00
2023-04-19T07:29:13.861Z,7.40
2023-04-19T07:31:44.478Z,7.10
2023-04-19T07:34:15.464Z,7.50
2023-04-19T07:36:46.432Z,6.60
2023-04-19T07:39:17.238Z,7.00
2023-04-19T07:41:48.054Z,6.80
2023-04-19T07:44:21.239Z,7.20
2023-04-19T07:46:52.891Z,6.70
2023-04-19T07:49:26.532Z,6.50
2023-04-19T07:52:11.281Z,7.50
2023-04-19T07:54:41.844Z,7.50
2023-04-19T07:57:12.510Z,7.00
2023-04-19T07:59:43.388Z,7.50
2023-04-19T08:02:14.247Z,6.70
2023-04-19T08:04:48.400Z,8.20
2023-04-19T08:07:19.296Z,7.70
2023-04-19T08:09:50.057Z,7.40
2023-04-19T08:15:06.675Z,8.10
2023-04-19T08:17:46.094Z,7.50
2023-04-19T08:20:17.794Z,7.40
2023-04-19T08:22:48.350Z,8.00
2023-04-19T08:25:26.719Z,8.10
2023-04-19T08:27:58.195Z,8.00
2023-04-19T08:30:28.845Z,7.80
2023-04-19T08:32:59.459Z,8.20
2023-04-19T08:35:30.339Z,7.90
2023-04-19T08:38:02.588Z,7.80
2023-04-19T08:40:34.557Z,7.60
2023-04-19T08:43:09.101Z,6.70
2023-04-19T08:45:40.479Z,7.80
2023-04-19T08:53:34.263Z,6.90
2023-04-19T08:56:21.174Z,7.40
2023-04-19T08:59:15.640Z,7.00
2023-04-19T09:01:48.928Z,7.00
2023-04-19T09:04:34.514Z,7.20
2023-04-19T09:07:08.285Z,6.90
2023-04-19T09:09:55.612Z,7.60
2023-04-19T09:12:32.944Z,7.30
2023-04-19T09:15:05.287Z,7.20
2023-04-19T09:17:36.377Z,7.10
2023-04-19T09:20:10.520Z,8.40
2023-04-19T09:23:07.635Z,8.30
2023-04-19T09:25:59.327Z,7.70
2023-04-19T09:28:30.452Z,7.50
2023-04-19T09:31:33.190Z,8.60
2023-04-19T09:34:15.590Z,7.50
2023-04-19T09:36:46.878Z,7.90
2023-04-19T09:39:31.785Z,8.80
2023-04-19T09:42:02.275Z,8.50
2023-04-19T09:45:06.012Z,9.70
2023-04-19T09:47:30.062Z,9.90
2023-04-19T09:50:22.567Z,9.20
2023-04-19T09:52:55.596Z,9.40
2023-04-19T09:55:29.517Z,11.00
2023-04-19T09:58:09.744Z,9.50
2023-04-19T10:00:48.802Z,8.60
2023-04-19T10:03:29.365Z,8.70
2023-04-19T10:06:04.294Z,9.00
2023-04-19T10:08:41.249Z,8.90
2023-04-19T10:11:47.898Z,9.00
2023-04-19T10:14:07.720Z,10.00
2023-04-19T10:16:41.297Z,8.70
2023-04-19T10:21:46.502Z,8.20
2023-04-19T10:24:28.473Z,8.60
2023-04-19T10:27:15.058Z,7.40
2023-04-19T10:30:05.067Z,7.50
2023-04-19T10:32:59.513Z,7.90
2023-04-19T10:35:35.966Z,7.90
2023-04-19T10:38:12.533Z,7.20
2023-04-19T10:41:01.386Z,7.00
2023-04-19T10:43:34.268Z,7.40
2023-04-19T10:46:10.003Z,7.10
2023-04-19T10:48:56.478Z,6.90
2023-04-19T10:51:30.000Z,7.50
2023-04-19T10:54:04.596Z,7.40
2023-04-19T10:57:04.658Z,6.60
2023-04-19T10:59:36.744Z,5.90
2023-04-19T11:02:28.818Z,6.20
2023-04-19T11:05:04.599Z,5.70
2023-04-19T11:07:45.249Z,5.90
2023-04-19T11:10:28.658Z,5.50
2023-04-19T11:12:59.378Z,5.40
2023-04-19T11:15:29.905Z,5.50
2023-04-19T11:18:12.089Z,5.90
2023-04-19T11:20:45.183Z,5.50
2023-04-19T11:23:19.857Z,5.20
2023-04-19T11:25:53.546Z,5.50
2023-04-19T11:28:24.172Z,6.10
2023-04-19T11:30:55.777Z,4.70
2023-04-19T11:33:27.255Z,5.60
2023-04-19T11:35:57.675Z,5.00
2023-04-19T11:38:30.193Z,5.10
2023-04-19T11:41:05.304Z,5.00
2023-04-19T11:43:39.391Z,4.60
2023-04-19T11:46:11.663Z,5.60
2023-04-19T11:48:53.188Z,4.70
2023-04-19T11:51:23.797Z,5.10
2023-04-19T11:53:54.320Z,5.20
2023-04-19T11:56:24.841Z,5.30
2023-04-19T11:59:00.102Z,4.60
2023-04-19T12:01:32.431Z,4.50
2023-04-19T12:04:06.310Z,4.50
2023-04-19T12:06:36.987Z,4.70
2023-04-19T12:09:10.197Z,5.10
2023-04-19T12:11:50.102Z,4.50
2023-04-19T12:14:22.885Z,3.90
2023-04-19T12:17:11.518Z,4.80
2023-04-19T12:19:47.177Z,4.40
2023-04-19T12:22:21.082Z,4.40
2023-04-19T12:24:54.422Z,4.10
2023-04-19T12:27:25.761Z,4.70
2023-04-19T12:29:57.238Z,5.10
2023-04-19T12:32:27.840Z,4.70
2023-04-19T12:34:58.516Z,5.90
2023-04-19T12:37:29.157Z,4.80
2023-04-19T12:39:59.639Z,4.00
2023-04-19T12:42:30.022Z,4.40
2023-04-19T12:45:01.256Z,4.00
2023-04-19T12:50:01.910Z,4.40
2023-04-19T12:55:01.314Z,4.10
2023-04-19T12:57:31.694Z,4.20
2023-04-19T13:00:02.253Z,4.10
2023-04-19T13:02:34.912Z,4.00
2023-04-19T13:05:06.350Z,4.40
2023-04-19T13:10:07.223Z,4.90
2023-04-19T13:12:38.461Z,4.20
2023-04-19T13:15:11.213Z,4.40
2023-04-19T13:17:41.655Z,4.60
2023-04-19T13:20:14.008Z,4.80
2023-04-19T13:22:44.367Z,4.80
2023-04-19T13:25:14.722Z,4.20
2023-04-19T13:27:47.022Z,4.80
2023-04-19T13:30:18.389Z,3.70
2023-04-19T13:32:49.055Z,4.10
2023-04-19T13:35:19.749Z,4.30
2023-04-19T13:37:51.151Z,3.50
2023-04-19T13:40:21.693Z,3.70
2023-04-19T13:42:53.090Z,4.20
2023-04-19T13:45:23.599Z,4.30
2023-04-19T13:47:54.236Z,3.70
2023-04-19T13:50:24.915Z,3.80
2023-04-19T13:52:55.441Z,3.60
2023-04-19T13:55:25.955Z,3.30
2023-04-19T13:57:56.362Z,3.40
2023-04-19T14:00:27.310Z,4.20
2023-04-19T14:02:58.357Z,3.70
2023-04-19T14:07:58.012Z,3.20
2023-04-19T14:10:29.522Z,3.50
2023-04-19T14:13:00.122Z,3.80
2023-04-19T14:15:30.590Z,3.40
2023-04-19T14:18:01.551Z,3.80
2023-04-19T14:20:32.033Z,3.40
2023-04-19T14:23:02.791Z,2.90
2023-04-19T14:25:33.266Z,3.20
2023-04-19T14:28:03.829Z,2.80
2023-04-19T14:30:34.324Z,2.80
2023-04-19T14:33:05.007Z,2.90
2023-04-19T14:35:35.665Z,2.90
2023-04-19T14:38:06.405Z,2.70
2023-04-19T14:40:37.012Z,2.60
2023-04-19T14:43:08.034Z,2.70
2023-04-19T14:48:08.291Z,2.60
2023-04-19T14:50:38.632Z,2.00
2023-04-19T14:53:09.766Z,2.50
2023-04-19T14:55:40.965Z,2.40
2023-04-19T15:00:40.203Z,2.50
2023-04-19T15:03:11.354Z,2.30
2023-04-19T15:05:42.221Z,2.40
2023-04-19T15:08:27.203Z,2.60
2023-04-19T15:11:00.361Z,2.20
2023-04-19T15:13:30.862Z,2.10
2023-04-19T15:16:03.200Z,2.00
2023-04-19T15:18:33.937Z,2.00
2023-04-19T15:21:05.561Z,2.10
2023-04-19T15:23:36.205Z,2.30
2023-04-19T15:26:06.910Z,2.10
2023-04-19T15:28:38.334Z,2.20
2023-04-19T15:31:10.379Z,2.10
2023-04-19T15:33:41.105Z,2.10
2023-04-19T15:36:11.825Z,2.00
2023-04-19T15:38:43.945Z,2.00
2023-04-19T15:41:14.850Z,2.60
2023-04-19T15:43:45.337Z,2.10
2023-04-19T15:46:16.546Z,2.10
2023-04-19T15:48:48.584Z,2.00
2023-04-19T15:51:19.181Z,3.10
2023-04-19T15:53:49.641Z,2.50
2023-04-19T15:56:20.003Z,2.40
2023-04-19T15:58:50.379Z,2.20
2023-04-19T16:01:22.863Z,2.50
2023-04-19T16:03:53.910Z,2.20
2023-04-19T16:08:53.698Z,2.20
2023-04-19T16:11:24.483Z,2.90
2023-04-19T16:13:55.206Z,2.90
2023-04-19T16:16:26.930Z,2.70
2023-04-19T16:18:57.842Z,1.80
2023-04-19T16:21:28.952Z,1.70
2023-04-19T16:24:00.733Z,1.90
2023-04-19T16:26:31.253Z,2.30
2023-04-19T16:29:02.012Z,2.90
2023-04-19T16:31:32.659Z,2.00
2023-04-19T16:34:03.066Z,2.30
2023-04-19T16:36:33.539Z,2.20
2023-04-19T16:39:04.170Z,1.90
2023-04-19T16:41:34.833Z,1.80
2023-04-19T16:44:05.671Z,2.00
2023-04-19T16:46:39.381Z,2.20
2023-04-19T16:49:12.521Z,2.10
2023-04-19T16:51:46.147Z,1.90
2023-04-19T16:54:16.876Z,1.90
2023-04-19T16:56:47.327Z,2.20
2023-04-19T16:59:26.747Z,2.30
2023-04-19T17:02:01.397Z,2.00
2023-04-19T17:04:33.637Z,2.00
2023-04-19T17:07:04.513Z,2.10
2023-04-19T17:09:35.343Z,2.40
2023-04-19T17:12:07.110Z,2.50
2023-04-19T17:14:38.002Z,2.00
2023-04-19T17:17:08.527Z,1.90
2023-04-19T17:19:48.310Z,2.30
2023-04-19T17:22:21.413Z,2.20
2023-04-19T17:24:57.492Z,2.10
2023-04-19T17:27:39.039Z,2.40
2023-04-19T17:32:59.280Z,2.40
2023-04-19T17:35:30.238Z,2.40
2023-04-19T17:38:06.503Z,2.40
2023-04-19T17:40:37.146Z,2.50
2023-04-19T17:43:08.655Z,2.50
2023-04-19T17:45:40.285Z,2.60
2023-04-19T17:48:10.813Z,2.30
2023-04-19T17:50:41.397Z,2.60
2023-04-19T17:53:11.924Z,2.60
2023-04-19T17:56:03.013Z,2.50
2023-04-19T17:58:53.692Z,2.30
2023-04-19T18:01:24.569Z,3.20
2023-04-19T18:03:57.542Z,2.80
2023-04-19T18:06:48.605Z,3.10
2023-04-19T18:09:19.451Z,2.80
2023-04-19T18:11:57.972Z,3.50
2023-04-19T18:14:31.223Z,3.30
2023-04-19T18:17:02.204Z,2.90
2023-04-19T18:19:37.431Z,2.90
2023-04-19T18:22:07.973Z,2.80
2023-04-19T18:24:38.527Z,3.20
2023-04-19T18:27:09.303Z,2.50
2023-04-19T18:29:39.934Z,3.10
2023-04-19T18:32:10.790Z,2.80
2023-04-19T18:34:52.682Z,2.70
2023-04-19T18:37:23.289Z,2.80
2023-04-19T18:39:53.859Z,2.90
2023-04-19T18:42:24.620Z,3.10
2023-04-19T18:44:57.653Z,2.90
2023-04-19T18:47:29.781Z,4.00
2023-04-19T18:50:15.437Z,3.20
2023-04-19T18:52:52.605Z,2.80
2023-04-19T18:55:27.551Z,2.90
2023-04-19T18:58:01.233Z,3.20
2023-04-19T19:00:53.220Z,2.90
2023-04-19T19:06:27.601Z,3.00
2023-04-19T19:09:09.602Z,3.00
2023-04-19T19:11:56.206Z,3.00
2023-04-19T19:14:35.714Z,3.00
2023-04-19T19:17:17.433Z,3.30
2023-04-19T19:20:10.787Z,2.90
2023-04-19T19:22:54.842Z,2.90
2023-04-19T19:25:27.174Z,3.00
2023-04-19T19:28:06.999Z,2.80
2023-04-19T19:30:49.718Z,2.40
2023-04-19T19:33:21.365Z,2.90
2023-04-19T19:35:54.961Z,3.20
2023-04-19T19:38:25.867Z,3.20
2023-04-19T19:43:50.529Z,2.90
2023-04-19T19:46:24.233Z,2.60
2023-04-19T19:48:57.423Z,3.00
2023-04-19T19:51:53.149Z,2.90
2023-04-19T19:54:23.529Z,2.90
2023-04-19T19:57:31.744Z,2.90
2023-04-19T20:00:32.010Z,3.20
2023-04-19T20:03:02.123Z,3.50
2023-04-19T20:05:35.719Z,3.30
2023-04-19T20:08:12.058Z,3.60
2023-04-19T20:10:44.252Z,3.50
2023-04-19T20:13:15.190Z,3.70
2023-04-19T20:15:47.310Z,3.30
2023-04-19T20:18:20.119Z,3.10
2023-04-19T20:20:54.078Z,3.80
2023-04-19T20:23:27.026Z,4.00
2023-04-19T20:25:59.906Z,3.90
2023-04-19T20:28:41.663Z,3.60
2023-04-19T20:31:14.624Z,3.70
2023-04-19T20:33:47.831Z,3.80
2023-04-19T20:36:28.478Z,3.40
2023-04-19T20:39:06.062Z,3.10
2023-04-19T20:41:37.450Z,3.10
2023-04-19T20:44:08.310Z,3.60
2023-04-19T20:46:59.314Z,3.20
2023-04-19T20:49:29.995Z,3.20
2023-04-19T20:52:20.841Z,3.50
2023-04-19T20:55:01.920Z,3.00
2023-04-19T20:57:32.387Z,3.40
2023-04-19T21:00:08.582Z,2.80
2023-04-19T21:02:42.267Z,3.50
2023-04-19T21:05:13.167Z,3.90
2023-04-19T21:07:46.286Z,3.50
2023-04-19T21:10:22.074Z,3.20
2023-04-19T21:13:06.466Z,3.00
2023-04-19T21:15:37.492Z,3.10
2023-04-19T21:18:08.165Z,3.30
2023-04-19T21:20:39.496Z,3.40
2023-04-19T21:23:12.401Z,3.30
2023-04-19T21:25:53.080Z,3.30
2023-04-19T21:28:26.938Z,3.30
2023-04-19T21:30:58.545Z,3.50
2023-04-19T21:33:29.099Z,3.30
2023-04-19T21:36:10.436Z,3.60
2023-04-19T21:38:43.948Z,3.00
2023-04-19T21:41:14.449Z,3.50
2023-04-19T21:43:47.522Z,3.20
2023-04-19T21:46:33.376Z,3.50
2023-04-19T21:49:06.641Z,3.60
2023-04-19T21:51:45.553Z,3.70
2023-04-19T21:54:30.651Z,3.40
2023-04-19T21:57:06.981Z,3.40
2023-04-19T21:59:39.882Z,3.40
2023-04-19T22:02:21.041Z,3.40
2023-04-19T22:04:54.933Z,3.80
2023-04-19T22:07:30.304Z,3.80
2023-04-19T22:10:12.258Z,3.60
2023-04-19T22:12:54.984Z,3.60
2023-04-19T22:15:48.315Z,3.40
2023-04-19T22:18:19.162Z,2.90
2023-04-19T22:21:11.076Z,3.10
2023-04-19T22:24:01.810Z,3.20
2023-04-19T22:26:43.691Z,3.00
2023-04-19T22:29:23.195Z,3.00
2023-04-19T22:31:53.623Z,3.20
2023-04-19T22:34:44.449Z,3.10
2023-04-19T22:37:25.570Z,3.10
2023-04-19T22:40:12.046Z,3.70
2023-04-19T22:42:42.848Z,3.20
2023-04-19T22:45:16.063Z,3.50
2023-04-19T22:47:46.807Z,3.00
2023-04-19T22:50:28.591Z,3.40
2023-04-19T22:53:19.394Z,3.50
2023-04-19T22:55:53.063Z,3.50
2023-04-19T22:58:23.701Z,3.30
2023-04-19T23:01:04.724Z,3.40
2023-04-19T23:03:38.453Z,3.40
2023-04-19T23:06:30.218Z,3.30
2023-04-19T23:09:21.036Z,3.20
2023-04-19T23:11:51.736Z,3.40
2023-04-19T23:14:22.367Z,3.80
2023-04-19T23:16:55.752Z,3.70
2023-04-19T23:19:30.584Z,3.20
2023-04-19T23:22:04.218Z,3.40
2023-04-19T23:24:36.128Z,3.20
2023-04-19T23:27:17.719Z,3.30
2023-04-19T23:29:48.273Z,3.80
2023-04-19T23:32:22.059Z,3.60
2023-04-19T23:34:52.798Z,3.90
2023-04-19T23:37:30.740Z,3.60
2023-04-19T23:40:14.122Z,3.30
2023-04-19T23:43:04.983Z,3.40
2023-04-19T23:45:38.548Z,3.80
2023-04-19T23:48:29.245Z,3.80
2023-04-19T23:51:20.013Z,4.10
2023-04-19T23:54:11.165Z,3.50
2023-04-19T23:57:01.981Z,4.40
2023-04-19T23:59:33.246Z,4.40
